sensor_id;sensor_type;location;lat;lon;timestamp;P1;durP1;ratioP1;P2;durP2;ratioP2
1975;SDS011;988;48.016;7.800;2022-09-02T00:01:27;21.60;;;20.20;;
1975;SDS011;988;48.016;7.800;2022-09-02T00:06:45;21.73;;;20.33;;
1975;SDS011;988;48.016;7.800;2022-09-02T00:09:12;21.17;;;19.90;;
1975;SDS011;988;48.016;7.800;2022-09-02T00:11:39;22.00;;;20.30;;
1975;SDS011;988;48.016;7.800;2022-09-02T00:14:08;21.27;;;20.00;;
1975;SDS011;988;48.016;7.800;2022-09-02T00:16:35;20.87;;;19.37;;
1975;SDS011;988;48.016;7.800;2022-09-02T00:19:01;20.27;;;18.97;;
1975;SDS011;988;48.016;7.800;2022-09-02T00:21:27;20.50;;;19.40;;
1975;SDS011;988;48.016;7.800;2022-09-02T00:23:53;20.87;;;19.47;;
1975;SDS011;988;48.016;7.800;2022-09-02T00:26:19;20.20;;;19.00;;
1975;SDS011;988;48.016;7.800;2022-09-02T00:28:46;21.00;;;19.80;;
1975;SDS011;988;48.016;7.800;2022-09-02T00:31:12;20.27;;;19.10;;
1975;SDS011;988;48.016;7.800;2022-09-02T00:33:38;21.30;;;20.00;;
1975;SDS011;988;48.016;7.800;2022-09-02T00:36:05;21.63;;;20.30;;
1975;SDS011;988;48.016;7.800;2022-09-02T00:38:32;21.47;;;20.23;;
1975;SDS011;988;48.016;7.800;2022-09-02T00:41:00;21.20;;;19.90;;
1975;SDS011;988;48.016;7.800;2022-09-02T00:46:12;21.40;;;20.20;;
1975;SDS011;988;48.016;7.800;2022-09-02T00:48:40;20.70;;;19.60;;
1975;SDS011;988;48.016;7.800;2022-09-02T00:51:07;21.43;;;20.00;;
1975;SDS011;988;48.016;7.800;2022-09-02T00:53:34;20.70;;;19.50;;
1975;SDS011;988;48.016;7.800;2022-09-02T00:56:03;20.80;;;19.60;;
1975;SDS011;988;48.016;7.800;2022-09-02T00:58:31;20.90;;;19.70;;
1975;SDS011;988;48.016;7.800;2022-09-02T01:00:58;21.13;;;19.83;;
1975;SDS011;988;48.016;7.800;2022-09-02T01:03:26;20.57;;;19.37;;
1975;SDS011;988;48.016;7.800;2022-09-02T01:05:52;21.17;;;19.83;;
1975;SDS011;988;48.016;7.800;2022-09-02T01:08:20;20.73;;;19.60;;
1975;SDS011;988;48.016;7.800;2022-09-02T01:10:58;21.03;;;19.83;;
1975;SDS011;988;48.016;7.800;2022-09-02T01:13:25;20.20;;;19.10;;
1975;SDS011;988;48.016;7.800;2022-09-02T01:15:57;20.10;;;18.90;;
1975;SDS011;988;48.016;7.800;2022-09-02T01:18:25;21.63;;;20.07;;
1975;SDS011;988;48.016;7.800;2022-09-02T01:20:52;20.60;;;19.30;;
1975;SDS011;988;48.016;7.800;2022-09-02T01:23:19;20.03;;;18.93;;
1975;SDS011;988;48.016;7.800;2022-09-02T01:25:45;20.10;;;18.83;;
1975;SDS011;988;48.016;7.800;2022-09-02T01:28:12;20.77;;;19.57;;
1975;SDS011;988;48.016;7.800;2022-09-02T01:30:40;21.27;;;19.77;;
1975;SDS011;988;48.016;7.800;2022-09-02T01:33:08;20.07;;;18.97;;
1975;SDS011;988;48.016;7.800;2022-09-02T01:35:34;20.07;;;18.97;;
1975;SDS011;988;48.016;7.800;2022-09-02T01:38:00;20.63;;;19.30;;
1975;SDS011;988;48.016;7.800;2022-09-02T01:40:27;20.53;;;19.40;;
1975;SDS011;988;48.016;7.800;2022-09-02T01:42:55;20.30;;;19.20;;
1975;SDS011;988;48.016;7.800;2022-09-02T01:45:22;20.73;;;19.50;;
1975;SDS011;988;48.016;7.800;2022-09-02T01:47:49;20.63;;;19.50;;
1975;SDS011;988;48.016;7.800;2022-09-02T01:50:15;20.67;;;19.57;;
1975;SDS011;988;48.016;7.800;2022-09-02T01:52:41;20.30;;;19.10;;
1975;SDS011;988;48.016;7.800;2022-09-02T01:55:07;21.07;;;19.77;;
1975;SDS011;988;48.016;7.800;2022-09-02T01:57:34;20.77;;;19.67;;
1975;SDS011;988;48.016;7.800;2022-09-02T02:00:00;20.20;;;19.00;;
1975;SDS011;988;48.016;7.800;2022-09-02T02:02:26;19.90;;;18.80;;
1975;SDS011;988;48.016;7.800;2022-09-02T02:04:52;20.47;;;19.37;;
1975;SDS011;988;48.016;7.800;2022-09-02T02:07:19;20.50;;;19.30;;
1975;SDS011;988;48.016;7.800;2022-09-02T02:09:46;21.50;;;20.20;;
1975;SDS011;988;48.016;7.800;2022-09-02T02:12:12;20.73;;;19.53;;
1975;SDS011;988;48.016;7.800;2022-09-02T02:14:39;21.93;;;20.40;;
1975;SDS011;988;48.016;7.800;2022-09-02T02:17:05;20.43;;;19.30;;
1975;SDS011;988;48.016;7.800;2022-09-02T02:19:31;21.07;;;19.67;;
1975;SDS011;988;48.016;7.800;2022-09-02T02:21:57;20.90;;;19.70;;
1975;SDS011;988;48.016;7.800;2022-09-02T02:24:23;21.60;;;20.20;;
1975;SDS011;988;48.016;7.800;2022-09-02T02:26:48;20.40;;;19.20;;
1975;SDS011;988;48.016;7.800;2022-09-02T02:29:14;20.93;;;19.73;;
1975;SDS011;988;48.016;7.800;2022-09-02T02:31:41;20.70;;;19.50;;
1975;SDS011;988;48.016;7.800;2022-09-02T02:34:07;21.37;;;20.20;;
1975;SDS011;988;48.016;7.800;2022-09-02T02:36:34;20.57;;;19.33;;
1975;SDS011;988;48.016;7.800;2022-09-02T02:39:00;21.00;;;19.80;;
1975;SDS011;988;48.016;7.800;2022-09-02T02:41:28;21.43;;;20.03;;
1975;SDS011;988;48.016;7.800;2022-09-02T02:43:54;21.33;;;20.07;;
1975;SDS011;988;48.016;7.800;2022-09-02T02:46:20;22.00;;;20.60;;
1975;SDS011;988;48.016;7.800;2022-09-02T02:48:46;21.43;;;20.03;;
1975;SDS011;988;48.016;7.800;2022-09-02T02:51:12;21.67;;;20.37;;
1975;SDS011;988;48.016;7.800;2022-09-02T02:53:39;21.23;;;20.00;;
1975;SDS011;988;48.016;7.800;2022-09-02T02:56:05;21.30;;;20.10;;
1975;SDS011;988;48.016;7.800;2022-09-02T02:58:31;21.30;;;19.90;;
1975;SDS011;988;48.016;7.800;2022-09-02T03:00:57;21.07;;;19.70;;
1975;SDS011;988;48.016;7.800;2022-09-02T03:03:25;21.47;;;20.07;;
1975;SDS011;988;48.016;7.800;2022-09-02T03:05:51;21.20;;;20.00;;
1975;SDS011;988;48.016;7.800;2022-09-02T03:08:17;22.20;;;20.40;;
1975;SDS011;988;48.016;7.800;2022-09-02T03:10:45;22.10;;;20.70;;
1975;SDS011;988;48.016;7.800;2022-09-02T03:13:12;22.93;;;21.53;;
1975;SDS011;988;48.016;7.800;2022-09-02T03:15:39;22.37;;;20.87;;
1975;SDS011;988;48.016;7.800;2022-09-02T03:18:05;21.87;;;20.53;;
1975;SDS011;988;48.016;7.800;2022-09-02T03:20:31;20.97;;;19.77;;
1975;SDS011;988;48.016;7.800;2022-09-02T03:22:57;21.83;;;20.53;;
1975;SDS011;988;48.016;7.800;2022-09-02T03:25:24;22.17;;;20.83;;
1975;SDS011;988;48.016;7.800;2022-09-02T03:27:50;22.00;;;20.70;;
1975;SDS011;988;48.016;7.800;2022-09-02T03:30:21;22.37;;;20.87;;
1975;SDS011;988;48.016;7.800;2022-09-02T03:32:49;23.27;;;21.23;;
1975;SDS011;988;48.016;7.800;2022-09-02T03:35:15;22.20;;;20.80;;
1975;SDS011;988;48.016;7.800;2022-09-02T03:37:43;23.27;;;21.67;;
1975;SDS011;988;48.016;7.800;2022-09-02T03:40:10;22.53;;;20.90;;
1975;SDS011;988;48.016;7.800;2022-09-02T03:42:36;21.63;;;20.23;;
1975;SDS011;988;48.016;7.800;2022-09-02T03:45:03;22.70;;;21.30;;
1975;SDS011;988;48.016;7.800;2022-09-02T03:47:30;22.37;;;20.77;;
1975;SDS011;988;48.016;7.800;2022-09-02T03:49:56;22.77;;;21.27;;
1975;SDS011;988;48.016;7.800;2022-09-02T03:52:23;21.90;;;20.57;;
1975;SDS011;988;48.016;7.800;2022-09-02T03:54:49;23.33;;;21.30;;
1975;SDS011;988;48.016;7.800;2022-09-02T03:57:15;23.17;;;21.37;;
1975;SDS011;988;48.016;7.800;2022-09-02T03:59:41;23.50;;;21.90;;
1975;SDS011;988;48.016;7.800;2022-09-02T04:02:07;23.07;;;21.37;;
1975;SDS011;988;48.016;7.800;2022-09-02T04:04:33;24.37;;;22.87;;
1975;SDS011;988;48.016;7.800;2022-09-02T04:06:59;23.03;;;21.47;;
1975;SDS011;988;48.016;7.800;2022-09-02T04:09:25;23.93;;;22.13;;
1975;SDS011;988;48.016;7.800;2022-09-02T04:11:51;22.60;;;21.20;;
1975;SDS011;988;48.016;7.800;2022-09-02T04:14:22;23.60;;;22.00;;
1975;SDS011;988;48.016;7.800;2022-09-02T04:16:48;23.10;;;21.60;;
1975;SDS011;988;48.016;7.800;2022-09-02T04:19:14;24.13;;;22.33;;
1975;SDS011;988;48.016;7.800;2022-09-02T04:21:40;22.30;;;20.77;;
1975;SDS011;988;48.016;7.800;2022-09-02T04:24:07;22.47;;;21.07;;
1975;SDS011;988;48.016;7.800;2022-09-02T04:26:34;24.53;;;22.57;;
1975;SDS011;988;48.016;7.800;2022-09-02T04:29:00;24.27;;;22.40;;
1975;SDS011;988;48.016;7.800;2022-09-02T04:31:26;24.60;;;22.77;;
1975;SDS011;988;48.016;7.800;2022-09-02T04:33:54;25.13;;;21.77;;
1975;SDS011;988;48.016;7.800;2022-09-02T04:36:20;23.63;;;22.03;;
1975;SDS011;988;48.016;7.800;2022-09-02T04:38:47;23.10;;;21.50;;
1975;SDS011;988;48.016;7.800;2022-09-02T04:41:17;22.60;;;21.30;;
1975;SDS011;988;48.016;7.800;2022-09-02T04:43:44;24.50;;;22.90;;
1975;SDS011;988;48.016;7.800;2022-09-02T04:46:12;24.50;;;22.90;;
1975;SDS011;988;48.016;7.800;2022-09-02T04:48:38;24.50;;;22.63;;
1975;SDS011;988;48.016;7.800;2022-09-02T04:51:05;23.00;;;21.60;;
1975;SDS011;988;48.016;7.800;2022-09-02T04:53:32;24.50;;;22.70;;
1975;SDS011;988;48.016;7.800;2022-09-02T04:55:58;22.00;;;20.70;;
1975;SDS011;988;48.016;7.800;2022-09-02T04:58:24;22.90;;;21.30;;
1975;SDS011;988;48.016;7.800;2022-09-02T05:00:52;22.57;;;20.77;;
1975;SDS011;988;48.016;7.800;2022-09-02T05:03:18;21.73;;;20.43;;
1975;SDS011;988;48.016;7.800;2022-09-02T05:05:44;22.50;;;21.10;;
1975;SDS011;988;48.016;7.800;2022-09-02T05:08:12;22.00;;;20.40;;
1975;SDS011;988;48.016;7.800;2022-09-02T05:10:38;22.00;;;20.30;;
1975;SDS011;988;48.016;7.800;2022-09-02T05:13:04;22.10;;;20.60;;
1975;SDS011;988;48.016;7.800;2022-09-02T05:15:30;22.43;;;20.83;;
1975;SDS011;988;48.016;7.800;2022-09-02T05:17:57;23.30;;;21.57;;
1975;SDS011;988;48.016;7.800;2022-09-02T05:20:23;21.80;;;20.20;;
1975;SDS011;988;48.016;7.800;2022-09-02T05:22:50;23.47;;;21.20;;
1975;SDS011;988;48.016;7.800;2022-09-02T05:25:16;22.33;;;20.93;;
1975;SDS011;988;48.016;7.800;2022-09-02T05:27:42;23.07;;;20.97;;
1975;SDS011;988;48.016;7.800;2022-09-02T05:30:08;23.13;;;21.43;;
1975;SDS011;988;48.016;7.800;2022-09-02T05:32:34;21.57;;;20.10;;
1975;SDS011;988;48.016;7.800;2022-09-02T05:35:00;21.10;;;19.83;;
1975;SDS011;988;48.016;7.800;2022-09-02T05:37:26;22.33;;;20.87;;
1975;SDS011;988;48.016;7.800;2022-09-02T05:39:52;23.37;;;21.90;;
1975;SDS011;988;48.016;7.800;2022-09-02T05:42:18;22.17;;;20.10;;
1975;SDS011;988;48.016;7.800;2022-09-02T05:44:44;20.60;;;19.40;;
1975;SDS011;988;48.016;7.800;2022-09-02T05:47:11;22.80;;;21.07;;
1975;SDS011;988;48.016;7.800;2022-09-02T05:49:37;20.70;;;19.10;;
1975;SDS011;988;48.016;7.800;2022-09-02T05:52:03;21.03;;;19.67;;
1975;SDS011;988;48.016;7.800;2022-09-02T05:54:34;21.97;;;20.57;;
1975;SDS011;988;48.016;7.800;2022-09-02T05:57:03;23.23;;;21.03;;
1975;SDS011;988;48.016;7.800;2022-09-02T05:59:31;23.00;;;21.43;;
1975;SDS011;988;48.016;7.800;2022-09-02T06:02:00;23.30;;;21.63;;
1975;SDS011;988;48.016;7.800;2022-09-02T06:04:26;22.80;;;21.30;;
1975;SDS011;988;48.016;7.800;2022-09-02T06:06:53;21.30;;;20.00;;
1975;SDS011;988;48.016;7.800;2022-09-02T06:09:25;21.87;;;20.27;;
1975;SDS011;988;48.016;7.800;2022-09-02T06:11:51;22.43;;;20.90;;
1975;SDS011;988;48.016;7.800;2022-09-02T06:14:18;22.20;;;20.70;;
1975;SDS011;988;48.016;7.800;2022-09-02T06:16:46;20.80;;;19.50;;
1975;SDS011;988;48.016;7.800;2022-09-02T06:19:12;22.47;;;20.87;;
1975;SDS011;988;48.016;7.800;2022-09-02T06:21:38;21.63;;;20.33;;
1975;SDS011;988;48.016;7.800;2022-09-02T06:24:04;21.50;;;20.20;;
1975;SDS011;988;48.016;7.800;2022-09-02T06:26:31;22.40;;;21.03;;
1975;SDS011;988;48.016;7.800;2022-09-02T06:28:57;22.07;;;20.47;;
1975;SDS011;988;48.016;7.800;2022-09-02T06:31:23;22.40;;;20.90;;
1975;SDS011;988;48.016;7.800;2022-09-02T06:33:53;22.30;;;20.90;;
1975;SDS011;988;48.016;7.800;2022-09-02T06:36:19;21.10;;;19.90;;
1975;SDS011;988;48.016;7.800;2022-09-02T06:38:46;21.57;;;20.20;;
1975;SDS011;988;48.016;7.800;2022-09-02T06:41:13;20.97;;;19.70;;
1975;SDS011;988;48.016;7.800;2022-09-02T06:43:40;21.87;;;20.23;;
1975;SDS011;988;48.016;7.800;2022-09-02T06:46:06;21.83;;;20.43;;
1975;SDS011;988;48.016;7.800;2022-09-02T06:48:33;20.87;;;19.53;;
1975;SDS011;988;48.016;7.800;2022-09-02T06:50:59;20.90;;;19.60;;
1975;SDS011;988;48.016;7.800;2022-09-02T06:53:25;21.17;;;19.70;;
1975;SDS011;988;48.016;7.800;2022-09-02T06:55:51;21.23;;;19.93;;
1975;SDS011;988;48.016;7.800;2022-09-02T06:58:17;20.00;;;18.90;;
1975;SDS011;988;48.016;7.800;2022-09-02T07:00:43;21.00;;;19.40;;
1975;SDS011;988;48.016;7.800;2022-09-02T07:03:09;20.70;;;19.20;;
1975;SDS011;988;48.016;7.800;2022-09-02T07:06:05;20.30;;;19.20;;
1975;SDS011;988;48.016;7.800;2022-09-02T07:08:35;20.70;;;19.40;;
1975;SDS011;988;48.016;7.800;2022-09-02T07:11:02;20.37;;;19.17;;
1975;SDS011;988;48.016;7.800;2022-09-02T07:13:28;19.63;;;18.57;;
1975;SDS011;988;48.016;7.800;2022-09-02T07:15:54;20.00;;;18.80;;
1975;SDS011;988;48.016;7.800;2022-09-02T07:18:20;19.47;;;18.27;;
1975;SDS011;988;48.016;7.800;2022-09-02T07:20:46;20.03;;;18.83;;
1975;SDS011;988;48.016;7.800;2022-09-02T07:23:13;19.70;;;18.60;;
1975;SDS011;988;48.016;7.800;2022-09-02T07:25:39;19.13;;;18.13;;
1975;SDS011;988;48.016;7.800;2022-09-02T07:28:08;19.80;;;18.60;;
1975;SDS011;988;48.016;7.800;2022-09-02T07:30:34;20.47;;;19.10;;
1975;SDS011;988;48.016;7.800;2022-09-02T07:33:15;20.20;;;19.00;;
1975;SDS011;988;48.016;7.800;2022-09-02T07:35:41;22.13;;;20.63;;
1975;SDS011;988;48.016;7.800;2022-09-02T07:38:08;19.67;;;18.57;;
1975;SDS011;988;48.016;7.800;2022-09-02T07:40:35;20.20;;;18.70;;
1975;SDS011;988;48.016;7.800;2022-09-02T07:43:03;20.60;;;18.87;;
1975;SDS011;988;48.016;7.800;2022-09-02T07:45:29;20.70;;;19.50;;
1975;SDS011;988;48.016;7.800;2022-09-02T07:47:55;20.57;;;19.37;;
1975;SDS011;988;48.016;7.800;2022-09-02T07:50:21;20.87;;;18.93;;
1975;SDS011;988;48.016;7.800;2022-09-02T07:52:49;19.80;;;18.60;;
1975;SDS011;988;48.016;7.800;2022-09-02T07:55:15;21.10;;;19.70;;
1975;SDS011;988;48.016;7.800;2022-09-02T07:57:41;19.87;;;18.47;;
1975;SDS011;988;48.016;7.800;2022-09-02T08:00:07;19.97;;;18.47;;
1975;SDS011;988;48.016;7.800;2022-09-02T08:02:35;19.43;;;18.23;;
1975;SDS011;988;48.016;7.800;2022-09-02T08:05:01;21.00;;;19.80;;
1975;SDS011;988;48.016;7.800;2022-09-02T08:07:28;20.30;;;19.00;;
1975;SDS011;988;48.016;7.800;2022-09-02T08:09:54;20.50;;;19.27;;
1975;SDS011;988;48.016;7.800;2022-09-02T08:12:20;19.63;;;18.53;;
1975;SDS011;988;48.016;7.800;2022-09-02T08:14:46;20.27;;;19.07;;
1975;SDS011;988;48.016;7.800;2022-09-02T08:17:12;20.03;;;18.93;;
1975;SDS011;988;48.016;7.800;2022-09-02T08:19:38;19.60;;;18.40;;
1975;SDS011;988;48.016;7.800;2022-09-02T08:22:04;19.53;;;18.53;;
1975;SDS011;988;48.016;7.800;2022-09-02T08:24:31;19.90;;;18.80;;
1975;SDS011;988;48.016;7.800;2022-09-02T08:26:58;20.17;;;18.80;;
1975;SDS011;988;48.016;7.800;2022-09-02T08:29:24;19.53;;;18.43;;
1975;SDS011;988;48.016;7.800;2022-09-02T08:31:50;19.80;;;18.53;;
1975;SDS011;988;48.016;7.800;2022-09-02T08:34:16;19.20;;;18.10;;
1975;SDS011;988;48.016;7.800;2022-09-02T08:36:42;20.63;;;18.97;;
1975;SDS011;988;48.016;7.800;2022-09-02T08:39:09;19.93;;;18.77;;
1975;SDS011;988;48.016;7.800;2022-09-02T08:44:04;19.30;;;18.20;;
1975;SDS011;988;48.016;7.800;2022-09-02T08:46:30;19.53;;;18.43;;
1975;SDS011;988;48.016;7.800;2022-09-02T08:49:07;20.53;;;19.23;;
1975;SDS011;988;48.016;7.800;2022-09-02T08:51:42;20.13;;;19.03;;
1975;SDS011;988;48.016;7.800;2022-09-02T08:54:19;19.80;;;18.73;;
1975;SDS011;988;48.016;7.800;2022-09-02T08:56:46;20.00;;;18.73;;
1975;SDS011;988;48.016;7.800;2022-09-02T08:59:15;20.90;;;19.70;;
1975;SDS011;988;48.016;7.800;2022-09-02T09:09:34;19.23;;;18.10;;
1975;SDS011;988;48.016;7.800;2022-09-02T09:12:08;19.97;;;18.77;;
1975;SDS011;988;48.016;7.800;2022-09-02T09:17:33;19.80;;;18.40;;
1975;SDS011;988;48.016;7.800;2022-09-02T09:20:05;19.90;;;18.77;;
1975;SDS011;988;48.016;7.800;2022-09-02T09:22:33;20.07;;;18.97;;
1975;SDS011;988;48.016;7.800;2022-09-02T09:25:13;20.33;;;19.23;;
1975;SDS011;988;48.016;7.800;2022-09-02T09:27:40;19.77;;;18.67;;
1975;SDS011;988;48.016;7.800;2022-09-02T09:30:06;20.50;;;19.30;;
1975;SDS011;988;48.016;7.800;2022-09-02T09:32:38;20.73;;;19.33;;
1975;SDS011;988;48.016;7.800;2022-09-02T09:35:06;19.40;;;18.30;;
1975;SDS011;988;48.016;7.800;2022-09-02T09:39:59;19.40;;;18.20;;
1975;SDS011;988;48.016;7.800;2022-09-02T09:42:29;20.67;;;19.27;;
1975;SDS011;988;48.016;7.800;2022-09-02T09:44:56;19.30;;;18.20;;
1975;SDS011;988;48.016;7.800;2022-09-02T09:47:22;20.40;;;18.83;;
1975;SDS011;988;48.016;7.800;2022-09-02T09:49:50;19.67;;;18.47;;
1975;SDS011;988;48.016;7.800;2022-09-02T09:52:23;19.87;;;18.67;;
1975;SDS011;988;48.016;7.800;2022-09-02T09:57:31;19.93;;;18.80;;
1975;SDS011;988;48.016;7.800;2022-09-02T09:59:57;19.70;;;18.70;;
1975;SDS011;988;48.016;7.800;2022-09-02T10:02:26;20.07;;;18.97;;
1975;SDS011;988;48.016;7.800;2022-09-02T10:04:53;19.93;;;18.83;;
1975;SDS011;988;48.016;7.800;2022-09-02T10:07:36;20.63;;;19.33;;
1975;SDS011;988;48.016;7.800;2022-09-02T10:10:19;19.30;;;18.30;;
1975;SDS011;988;48.016;7.800;2022-09-02T10:12:46;19.50;;;18.50;;
1975;SDS011;988;48.016;7.800;2022-09-02T10:15:12;20.30;;;19.20;;
1975;SDS011;988;48.016;7.800;2022-09-02T10:17:47;20.20;;;19.10;;
1975;SDS011;988;48.016;7.800;2022-09-02T10:25:34;20.63;;;19.43;;
1975;SDS011;988;48.016;7.800;2022-09-02T10:28:10;22.40;;;20.67;;
1975;SDS011;988;48.016;7.800;2022-09-02T10:30:42;20.60;;;19.40;;
1975;SDS011;988;48.016;7.800;2022-09-02T10:36:03;20.20;;;18.83;;
1975;SDS011;988;48.016;7.800;2022-09-02T10:38:33;20.43;;;19.30;;
1975;SDS011;988;48.016;7.800;2022-09-02T10:43:47;19.77;;;18.67;;
1975;SDS011;988;48.016;7.800;2022-09-02T10:46:16;19.90;;;18.90;;
1975;SDS011;988;48.016;7.800;2022-09-02T10:49:04;20.90;;;19.33;;
1975;SDS011;988;48.016;7.800;2022-09-02T10:51:42;20.57;;;19.47;;
1975;SDS011;988;48.016;7.800;2022-09-02T10:56:42;20.67;;;19.50;;
1975;SDS011;988;48.016;7.800;2022-09-02T10:59:12;20.03;;;19.03;;
1975;SDS011;988;48.016;7.800;2022-09-02T11:04:12;20.30;;;19.10;;
1975;SDS011;988;48.016;7.800;2022-09-02T11:06:41;20.73;;;19.53;;
1975;SDS011;988;48.016;7.800;2022-09-02T11:17:04;20.13;;;19.03;;
1975;SDS011;988;48.016;7.800;2022-09-02T11:22:16;20.00;;;18.80;;
1975;SDS011;988;48.016;7.800;2022-09-02T11:27:18;20.27;;;19.17;;
1975;SDS011;988;48.016;7.800;2022-09-02T11:32:20;20.60;;;19.33;;
1975;SDS011;988;48.016;7.800;2022-09-02T11:34:50;20.03;;;18.93;;
1975;SDS011;988;48.016;7.800;2022-09-02T11:38:18;20.37;;;19.20;;
1975;SDS011;988;48.016;7.800;2022-09-02T11:40:16;20.27;;;19.10;;
1975;SDS011;988;48.016;7.800;2022-09-02T11:56:10;21.10;;;19.67;;
1975;SDS011;988;48.016;7.800;2022-09-02T12:01:25;20.23;;;19.20;;
1975;SDS011;988;48.016;7.800;2022-09-02T12:06:21;20.40;;;19.30;;
1975;SDS011;988;48.016;7.800;2022-09-02T12:14:04;20.10;;;19.00;;
1975;SDS011;988;48.016;7.800;2022-09-02T12:16:34;20.00;;;18.90;;
1975;SDS011;988;48.016;7.800;2022-09-02T12:21:31;20.50;;;19.40;;
1975;SDS011;988;48.016;7.800;2022-09-02T12:31:51;20.77;;;19.67;;
1975;SDS011;988;48.016;7.800;2022-09-02T12:47:11;20.27;;;19.17;;
1975;SDS011;988;48.016;7.800;2022-09-02T12:49:40;20.60;;;19.50;;
1975;SDS011;988;48.016;7.800;2022-09-02T12:52:10;20.73;;;19.57;;
1975;SDS011;988;48.016;7.800;2022-09-02T12:54:46;20.37;;;19.17;;
1975;SDS011;988;48.016;7.800;2022-09-02T12:57:13;19.60;;;18.40;;
1975;SDS011;988;48.016;7.800;2022-09-02T12:59:41;20.37;;;18.87;;
1975;SDS011;988;48.016;7.800;2022-09-02T13:12:14;20.83;;;19.73;;
1975;SDS011;988;48.016;7.800;2022-09-02T13:15:01;21.40;;;20.20;;
1975;SDS011;988;48.016;7.800;2022-09-02T13:25:12;20.73;;;19.53;;
1975;SDS011;988;48.016;7.800;2022-09-02T13:27:44;20.50;;;19.40;;
1975;SDS011;988;48.016;7.800;2022-09-02T13:32:41;20.37;;;19.27;;
1975;SDS011;988;48.016;7.800;2022-09-02T13:35:15;20.47;;;19.37;;
1975;SDS011;988;48.016;7.800;2022-09-02T13:37:41;20.87;;;19.67;;
1975;SDS011;988;48.016;7.800;2022-09-02T13:40:23;20.60;;;19.37;;
1975;SDS011;988;48.016;7.800;2022-09-02T13:42:54;21.90;;;20.40;;
1975;SDS011;988;48.016;7.800;2022-09-02T13:45:41;20.80;;;19.70;;
1975;SDS011;988;48.016;7.800;2022-09-02T13:48:25;21.03;;;19.77;;
1975;SDS011;988;48.016;7.800;2022-09-02T13:50:52;21.17;;;19.97;;
1975;SDS011;988;48.016;7.800;2022-09-02T13:53:39;20.70;;;19.20;;
1975;SDS011;988;48.016;7.800;2022-09-02T13:56:07;20.83;;;19.63;;
1975;SDS011;988;48.016;7.800;2022-09-02T13:58:37;20.87;;;19.77;;
1975;SDS011;988;48.016;7.800;2022-09-02T14:01:18;21.30;;;19.90;;
1975;SDS011;988;48.016;7.800;2022-09-02T14:03:45;20.70;;;19.40;;
1975;SDS011;988;48.016;7.800;2022-09-02T14:06:12;20.73;;;19.60;;
1975;SDS011;988;48.016;7.800;2022-09-02T14:08:38;21.43;;;20.03;;
1975;SDS011;988;48.016;7.800;2022-09-02T14:11:04;21.07;;;19.77;;
1975;SDS011;988;48.016;7.800;2022-09-02T14:13:30;21.33;;;19.93;;
1975;SDS011;988;48.016;7.800;2022-09-02T14:16:22;21.40;;;20.20;;
1975;SDS011;988;48.016;7.800;2022-09-02T14:19:01;22.40;;;20.87;;
1975;SDS011;988;48.016;7.800;2022-09-02T14:21:28;21.37;;;19.97;;
1975;SDS011;988;48.016;7.800;2022-09-02T14:23:54;21.37;;;20.07;;
1975;SDS011;988;48.016;7.800;2022-09-02T14:26:27;20.83;;;19.63;;
1975;SDS011;988;48.016;7.800;2022-09-02T14:28:54;20.70;;;19.50;;
1975;SDS011;988;48.016;7.800;2022-09-02T14:31:24;21.67;;;20.47;;
1975;SDS011;988;48.016;7.800;2022-09-02T14:33:53;21.00;;;19.90;;
1975;SDS011;988;48.016;7.800;2022-09-02T14:41:12;22.20;;;20.90;;
1975;SDS011;988;48.016;7.800;2022-09-02T14:43:48;21.53;;;20.33;;
1975;SDS011;988;48.016;7.800;2022-09-02T14:48:55;21.37;;;20.17;;
1975;SDS011;988;48.016;7.800;2022-09-02T14:51:23;21.63;;;20.33;;
1975;SDS011;988;48.016;7.800;2022-09-02T14:53:52;21.40;;;20.20;;
1975;SDS011;988;48.016;7.800;2022-09-02T14:56:41;22.07;;;20.70;;
1975;SDS011;988;48.016;7.800;2022-09-02T14:59:04;22.87;;;21.37;;
1975;SDS011;988;48.016;7.800;2022-09-02T15:01:30;21.10;;;19.90;;
1975;SDS011;988;48.016;7.800;2022-09-02T15:04:02;20.93;;;19.83;;
1975;SDS011;988;48.016;7.800;2022-09-02T15:06:28;21.57;;;20.37;;
1975;SDS011;988;48.016;7.800;2022-09-02T15:08:54;21.47;;;20.27;;
1975;SDS011;988;48.016;7.800;2022-09-02T15:11:20;22.13;;;20.93;;
1975;SDS011;988;48.016;7.800;2022-09-02T15:13:46;20.90;;;19.70;;
1975;SDS011;988;48.016;7.800;2022-09-02T15:16:12;21.30;;;20.00;;
1975;SDS011;988;48.016;7.800;2022-09-02T15:18:39;21.17;;;20.00;;
1975;SDS011;988;48.016;7.800;2022-09-02T15:21:05;21.70;;;20.50;;
1975;SDS011;988;48.016;7.800;2022-09-02T15:23:33;21.93;;;20.53;;
1975;SDS011;988;48.016;7.800;2022-09-02T15:26:01;20.90;;;19.60;;
1975;SDS011;988;48.016;7.800;2022-09-02T15:28:27;21.03;;;19.83;;
1975;SDS011;988;48.016;7.800;2022-09-02T15:30:58;21.43;;;20.13;;
1975;SDS011;988;48.016;7.800;2022-09-02T15:33:24;20.97;;;19.77;;
1975;SDS011;988;48.016;7.800;2022-09-02T15:35:51;21.90;;;20.47;;
1975;SDS011;988;48.016;7.800;2022-09-02T15:38:17;21.33;;;19.87;;
1975;SDS011;988;48.016;7.800;2022-09-02T15:40:43;22.70;;;21.30;;
1975;SDS011;988;48.016;7.800;2022-09-02T15:43:09;22.40;;;21.10;;
1975;SDS011;988;48.016;7.800;2022-09-02T15:45:43;22.17;;;20.87;;
1975;SDS011;988;48.016;7.800;2022-09-02T15:48:11;21.40;;;20.10;;
1975;SDS011;988;48.016;7.800;2022-09-02T15:50:37;21.07;;;19.77;;
1975;SDS011;988;48.016;7.800;2022-09-02T15:53:03;21.07;;;19.80;;
1975;SDS011;988;48.016;7.800;2022-09-02T15:55:32;21.10;;;19.90;;
1975;SDS011;988;48.016;7.800;2022-09-02T15:57:59;21.27;;;19.87;;
1975;SDS011;988;48.016;7.800;2022-09-02T16:00:25;21.33;;;19.90;;
1975;SDS011;988;48.016;7.800;2022-09-02T16:02:51;21.17;;;19.87;;
1975;SDS011;988;48.016;7.800;2022-09-02T16:05:18;20.50;;;19.03;;
1975;SDS011;988;48.016;7.800;2022-09-02T16:07:45;20.47;;;18.60;;
1975;SDS011;988;48.016;7.800;2022-09-02T16:10:12;20.33;;;18.60;;
1975;SDS011;988;48.016;7.800;2022-09-02T16:12:39;19.17;;;17.87;;
1975;SDS011;988;48.016;7.800;2022-09-02T16:15:05;19.17;;;18.03;;
1975;SDS011;988;48.016;7.800;2022-09-02T16:17:31;19.30;;;17.60;;
1975;SDS011;988;48.016;7.800;2022-09-02T16:19:57;19.07;;;17.97;;
1975;SDS011;988;48.016;7.800;2022-09-02T16:22:23;19.03;;;17.80;;
1975;SDS011;988;48.016;7.800;2022-09-02T16:24:49;20.07;;;18.10;;
1975;SDS011;988;48.016;7.800;2022-09-02T16:27:15;18.30;;;17.40;;
1975;SDS011;988;48.016;7.800;2022-09-02T16:30:01;18.47;;;17.23;;
1975;SDS011;988;48.016;7.800;2022-09-02T16:32:27;18.30;;;17.30;;
1975;SDS011;988;48.016;7.800;2022-09-02T16:34:53;18.27;;;17.27;;
1975;SDS011;988;48.016;7.800;2022-09-02T16:37:22;18.47;;;17.23;;
1975;SDS011;988;48.016;7.800;2022-09-02T16:39:47;18.40;;;17.43;;
1975;SDS011;988;48.016;7.800;2022-09-02T16:42:13;18.00;;;16.90;;
1975;SDS011;988;48.016;7.800;2022-09-02T16:44:39;18.70;;;17.60;;
1975;SDS011;988;48.016;7.800;2022-09-02T16:47:05;18.03;;;16.93;;
1975;SDS011;988;48.016;7.800;2022-09-02T16:49:31;19.47;;;18.37;;
1975;SDS011;988;48.016;7.800;2022-09-02T16:51:58;19.40;;;18.30;;
1975;SDS011;988;48.016;7.800;2022-09-02T16:54:25;19.27;;;18.07;;
1975;SDS011;988;48.016;7.800;2022-09-02T16:56:53;20.10;;;18.70;;
1975;SDS011;988;48.016;7.800;2022-09-02T16:59:19;18.43;;;17.40;;
1975;SDS011;988;48.016;7.800;2022-09-02T17:01:45;18.60;;;17.50;;
1975;SDS011;988;48.016;7.800;2022-09-02T17:04:11;18.47;;;17.47;;
1975;SDS011;988;48.016;7.800;2022-09-02T17:06:37;19.47;;;18.00;;
1975;SDS011;988;48.016;7.800;2022-09-02T17:09:03;18.50;;;17.50;;
1975;SDS011;988;48.016;7.800;2022-09-02T17:14:00;19.13;;;17.67;;
1975;SDS011;988;48.016;7.800;2022-09-02T17:16:28;18.57;;;17.57;;
1975;SDS011;988;48.016;7.800;2022-09-02T17:18:54;18.50;;;17.40;;